sensor_id;sensor_type;location;lat;lon;timestamp;P1;durP1;ratioP1;P2;durP2;ratioP2
41514;SDS011;27247;48.020;16.720;2023-07-16T00:02:14;11.37;;;8.33;;
41514;SDS011;27247;48.020;16.720;2023-07-16T00:06:25;10.50;;;7.10;;
41514;SDS011;27247;48.020;16.720;2023-07-16T00:10:35;9.40;;;6.93;;
41514;SDS011;27247;48.020;16.720;2023-07-16T00:14:47;9.43;;;7.10;;
41514;SDS011;27247;48.020;16.720;2023-07-16T00:18:57;9.13;;;7.13;;
41514;SDS011;27247;48.020;16.720;2023-07-16T00:23:08;9.77;;;6.50;;
41514;SDS011;27247;48.020;16.720;2023-07-16T00:27:18;12.93;;;7.53;;
41514;SDS011;27247;48.020;16.720;2023-07-16T00:31:29;11.50;;;7.43;;
41514;SDS011;27247;48.020;16.720;2023-07-16T00:35:39;8.50;;;6.73;;
41514;SDS011;27247;48.020;16.720;2023-07-16T00:39:56;11.20;;;7.22;;
41514;SDS011;27247;48.020;16.720;2023-07-16T00:44:06;11.18;;;7.60;;
41514;SDS011;27247;48.020;16.720;2023-07-16T00:48:16;11.93;;;8.20;;
41514;SDS011;27247;48.020;16.720;2023-07-16T00:52:28;12.23;;;7.72;;
41514;SDS011;27247;48.020;16.720;2023-07-16T00:56:39;8.65;;;7.57;;
41514;SDS011;27247;48.020;16.720;2023-07-16T01:00:49;11.65;;;7.93;;
41514;SDS011;27247;48.020;16.720;2023-07-16T01:05:00;9.93;;;7.70;;
41514;SDS011;27247;48.020;16.720;2023-07-16T01:09:12;9.57;;;8.57;;
41514;SDS011;27247;48.020;16.720;2023-07-16T01:13:26;15.13;;;9.05;;
41514;SDS011;27247;48.020;16.720;2023-07-16T01:17:38;10.13;;;8.77;;
41514;SDS011;27247;48.020;16.720;2023-07-16T01:30:29;11.43;;;9.50;;
41514;SDS011;27247;48.020;16.720;2023-07-16T01:34:41;10.48;;;8.57;;
41514;SDS011;27247;48.020;16.720;2023-07-16T01:38:52;16.77;;;11.45;;
41514;SDS011;27247;48.020;16.720;2023-07-16T01:43:03;12.57;;;11.32;;
41514;SDS011;27247;48.020;16.720;2023-07-16T01:47:14;15.27;;;13.40;;
41514;SDS011;27247;48.020;16.720;2023-07-16T01:51:33;16.52;;;14.02;;
41514;SDS011;27247;48.020;16.720;2023-07-16T01:55:43;17.47;;;15.67;;
41514;SDS011;27247;48.020;16.720;2023-07-16T01:59:54;19.67;;;16.95;;
41514;SDS011;27247;48.020;16.720;2023-07-16T02:04:04;21.97;;;18.43;;
41514;SDS011;27247;48.020;16.720;2023-07-16T02:08:16;22.13;;;19.87;;
41514;SDS011;27247;48.020;16.720;2023-07-16T02:12:27;23.48;;;21.00;;
41514;SDS011;27247;48.020;16.720;2023-07-16T02:16:37;24.63;;;22.07;;
41514;SDS011;27247;48.020;16.720;2023-07-16T02:20:47;28.50;;;25.13;;
41514;SDS011;27247;48.020;16.720;2023-07-16T02:24:57;26.43;;;23.77;;
41514;SDS011;27247;48.020;16.720;2023-07-16T02:29:08;28.30;;;25.30;;
41514;SDS011;27247;48.020;16.720;2023-07-16T02:33:18;29.17;;;25.92;;
41514;SDS011;27247;48.020;16.720;2023-07-16T02:37:29;29.52;;;26.40;;
41514;SDS011;27247;48.020;16.720;2023-07-16T02:41:39;27.70;;;24.83;;
41514;SDS011;27247;48.020;16.720;2023-07-16T02:45:49;37.53;;;27.17;;
41514;SDS011;27247;48.020;16.720;2023-07-16T02:50:00;30.92;;;27.73;;
41514;SDS011;27247;48.020;16.720;2023-07-16T02:54:10;32.40;;;29.23;;
41514;SDS011;27247;48.020;16.720;2023-07-16T02:58:20;31.07;;;27.97;;
41514;SDS011;27247;48.020;16.720;2023-07-16T03:02:31;32.67;;;29.50;;
41514;SDS011;27247;48.020;16.720;2023-07-16T03:06:41;31.37;;;27.77;;
41514;SDS011;27247;48.020;16.720;2023-07-16T03:10:51;32.63;;;29.27;;
41514;SDS011;27247;48.020;16.720;2023-07-16T03:15:02;31.70;;;28.27;;
41514;SDS011;27247;48.020;16.720;2023-07-16T03:19:12;30.65;;;27.42;;
41514;SDS011;27247;48.020;16.720;2023-07-16T03:23:23;36.40;;;27.53;;
41514;SDS011;27247;48.020;16.720;2023-07-16T03:27:34;30.63;;;27.45;;
41514;SDS011;27247;48.020;16.720;2023-07-16T03:31:44;30.65;;;26.02;;
41514;SDS011;27247;48.020;16.720;2023-07-16T03:35:54;29.10;;;26.27;;
41514;SDS011;27247;48.020;16.720;2023-07-16T03:40:18;28.67;;;25.73;;
41514;SDS011;27247;48.020;16.720;2023-07-16T03:44:32;28.95;;;26.10;;
41514;SDS011;27247;48.020;16.720;2023-07-16T03:48:42;29.43;;;25.13;;
41514;SDS011;27247;48.020;16.720;2023-07-16T03:52:52;29.33;;;26.40;;
41514;SDS011;27247;48.020;16.720;2023-07-16T03:57:03;29.15;;;25.92;;
41514;SDS011;27247;48.020;16.720;2023-07-16T04:01:13;29.63;;;26.35;;
41514;SDS011;27247;48.020;16.720;2023-07-16T04:05:24;29.20;;;26.20;;
41514;SDS011;27247;48.020;16.720;2023-07-16T04:09:36;27.13;;;24.40;;
41514;SDS011;27247;48.020;16.720;2023-07-16T04:13:48;27.55;;;24.65;;
41514;SDS011;27247;48.020;16.720;2023-07-16T04:17:58;27.27;;;23.63;;
41514;SDS011;27247;48.020;16.720;2023-07-16T04:22:08;27.17;;;24.23;;
41514;SDS011;27247;48.020;16.720;2023-07-16T04:26:19;27.63;;;24.05;;
41514;SDS011;27247;48.020;16.720;2023-07-16T04:30:29;25.67;;;22.98;;
41514;SDS011;27247;48.020;16.720;2023-07-16T04:34:40;28.95;;;23.38;;
41514;SDS011;27247;48.020;16.720;2023-07-16T04:38:50;26.40;;;22.90;;
41514;SDS011;27247;48.020;16.720;2023-07-16T04:43:00;26.70;;;23.70;;
41514;SDS011;27247;48.020;16.720;2023-07-16T04:47:10;26.80;;;23.17;;
41514;SDS011;27247;48.020;16.720;2023-07-16T04:51:21;27.33;;;24.55;;
41514;SDS011;27247;48.020;16.720;2023-07-16T04:55:36;25.92;;;23.30;;
41514;SDS011;27247;48.020;16.720;2023-07-16T04:59:47;25.25;;;22.75;;
41514;SDS011;27247;48.020;16.720;2023-07-16T05:03:57;26.98;;;24.17;;
41514;SDS011;27247;48.020;16.720;2023-07-16T05:08:07;26.57;;;23.53;;
41514;SDS011;27247;48.020;16.720;2023-07-16T05:12:18;26.27;;;23.77;;
41514;SDS011;27247;48.020;16.720;2023-07-16T05:16:28;31.73;;;23.93;;
41514;SDS011;27247;48.020;16.720;2023-07-16T05:20:38;26.97;;;24.27;;
41514;SDS011;27247;48.020;16.720;2023-07-16T05:24:49;28.27;;;25.13;;
41514;SDS011;27247;48.020;16.720;2023-07-16T05:28:59;27.10;;;23.07;;
41514;SDS011;27247;48.020;16.720;2023-07-16T05:33:12;26.90;;;23.80;;
41514;SDS011;27247;48.020;16.720;2023-07-16T05:37:23;25.52;;;22.02;;
41514;SDS011;27247;48.020;16.720;2023-07-16T05:41:33;24.53;;;22.00;;
41514;SDS011;27247;48.020;16.720;2023-07-16T05:45:44;22.27;;;19.65;;
41514;SDS011;27247;48.020;16.720;2023-07-16T05:49:54;19.70;;;17.63;;
41514;SDS011;27247;48.020;16.720;2023-07-16T05:54:04;21.13;;;16.17;;
41514;SDS011;27247;48.020;16.720;2023-07-16T05:58:15;14.95;;;13.35;;
41514;SDS011;27247;48.020;16.720;2023-07-16T06:02:26;15.10;;;12.50;;
41514;SDS011;27247;48.020;16.720;2023-07-16T06:06:36;14.73;;;10.70;;
41514;SDS011;27247;48.020;16.720;2023-07-16T06:10:47;15.70;;;10.50;;
41514;SDS011;27247;48.020;16.720;2023-07-16T06:14:57;13.13;;;9.15;;
41514;SDS011;27247;48.020;16.720;2023-07-16T06:19:08;11.50;;;8.30;;
41514;SDS011;27247;48.020;16.720;2023-07-16T06:23:18;10.80;;;8.07;;
41514;SDS011;27247;48.020;16.720;2023-07-16T06:27:28;8.97;;;7.60;;
41514;SDS011;27247;48.020;16.720;2023-07-16T06:31:42;12.37;;;7.53;;
41514;SDS011;27247;48.020;16.720;2023-07-16T06:35:54;8.10;;;6.63;;
41514;SDS011;27247;48.020;16.720;2023-07-16T06:40:04;9.73;;;6.65;;
41514;SDS011;27247;48.020;16.720;2023-07-16T06:44:15;7.38;;;6.68;;
41514;SDS011;27247;48.020;16.720;2023-07-16T06:48:25;7.70;;;6.90;;
41514;SDS011;27247;48.020;16.720;2023-07-16T06:52:36;7.25;;;6.55;;
41514;SDS011;27247;48.020;16.720;2023-07-16T06:56:46;7.93;;;6.63;;
41514;SDS011;27247;48.020;16.720;2023-07-16T07:00:57;8.63;;;6.60;;
41514;SDS011;27247;48.020;16.720;2023-07-16T07:05:07;10.00;;;7.00;;
41514;SDS011;27247;48.020;16.720;2023-07-16T07:09:17;10.25;;;7.50;;
41514;SDS011;27247;48.020;16.720;2023-07-16T07:13:28;8.00;;;7.20;;
41514;SDS011;27247;48.020;16.720;2023-07-16T07:17:39;11.05;;;7.70;;
41514;SDS011;27247;48.020;16.720;2023-07-16T07:21:52;10.13;;;7.55;;
41514;SDS011;27247;48.020;16.720;2023-07-16T07:26:02;9.63;;;7.57;;
41514;SDS011;27247;48.020;16.720;2023-07-16T07:30:13;9.83;;;7.53;;
41514;SDS011;27247;48.020;16.720;2023-07-16T07:34:23;9.93;;;7.70;;
41514;SDS011;27247;48.020;16.720;2023-07-16T07:38:33;10.07;;;7.60;;
41514;SDS011;27247;48.020;16.720;2023-07-16T07:42:43;15.93;;;6.73;;
41514;SDS011;27247;48.020;16.720;2023-07-16T07:46:54;9.33;;;6.60;;
41514;SDS011;27247;48.020;16.720;2023-07-16T07:51:04;8.67;;;6.37;;
41514;SDS011;27247;48.020;16.720;2023-07-16T07:55:15;8.57;;;6.57;;
41514;SDS011;27247;48.020;16.720;2023-07-16T07:59:25;26.37;;;7.70;;
41514;SDS011;27247;48.020;16.720;2023-07-16T08:03:35;9.57;;;6.50;;
41514;SDS011;27247;48.020;16.720;2023-07-16T08:07:45;7.67;;;6.80;;
41514;SDS011;27247;48.020;16.720;2023-07-16T08:11:57;8.32;;;6.25;;
41514;SDS011;27247;48.020;16.720;2023-07-16T08:16:07;9.10;;;6.23;;
41514;SDS011;27247;48.020;16.720;2023-07-16T08:20:19;9.95;;;5.85;;
41514;SDS011;27247;48.020;16.720;2023-07-16T08:24:29;15.07;;;6.18;;
41514;SDS011;27247;48.020;16.720;2023-07-16T08:28:40;9.52;;;5.43;;
41514;SDS011;27247;48.020;16.720;2023-07-16T08:32:51;9.98;;;5.45;;
41514;SDS011;27247;48.020;16.720;2023-07-16T08:37:02;8.13;;;4.93;;
41514;SDS011;27247;48.020;16.720;2023-07-16T08:41:12;8.43;;;5.07;;
41514;SDS011;27247;48.020;16.720;2023-07-16T08:45:24;10.75;;;5.22;;
41514;SDS011;27247;48.020;16.720;2023-07-16T08:49:35;5.28;;;4.78;;
41514;SDS011;27247;48.020;16.720;2023-07-16T08:53:46;9.73;;;4.88;;
41514;SDS011;27247;48.020;16.720;2023-07-16T08:58:00;7.82;;;4.82;;
41514;SDS011;27247;48.020;16.720;2023-07-16T09:02:12;7.80;;;5.43;;
41514;SDS011;27247;48.020;16.720;2023-07-16T09:06:23;7.97;;;4.82;;
41514;SDS011;27247;48.020;16.720;2023-07-16T09:10:33;6.27;;;4.60;;
41514;SDS011;27247;48.020;16.720;2023-07-16T09:14:44;7.90;;;5.15;;
41514;SDS011;27247;48.020;16.720;2023-07-16T09:18:56;10.25;;;5.18;;
41514;SDS011;27247;48.020;16.720;2023-07-16T09:23:18;8.90;;;5.40;;
41514;SDS011;27247;48.020;16.720;2023-07-16T09:27:29;5.82;;;5.13;;
41514;SDS011;27247;48.020;16.720;2023-07-16T09:31:57;7.97;;;4.68;;
41514;SDS011;27247;48.020;16.720;2023-07-16T09:36:09;7.03;;;5.13;;
41514;SDS011;27247;48.020;16.720;2023-07-16T09:40:20;7.88;;;4.45;;
41514;SDS011;27247;48.020;16.720;2023-07-16T09:44:31;5.90;;;3.97;;
41514;SDS011;27247;48.020;16.720;2023-07-16T09:48:42;4.30;;;3.90;;
41514;SDS011;27247;48.020;16.720;2023-07-16T09:52:52;9.83;;;3.47;;
41514;SDS011;27247;48.020;16.720;2023-07-16T09:57:02;6.33;;;3.77;;
41514;SDS011;27247;48.020;16.720;2023-07-16T10:01:14;4.95;;;3.58;;
41514;SDS011;27247;48.020;16.720;2023-07-16T10:05:27;6.07;;;3.80;;
41514;SDS011;27247;48.020;16.720;2023-07-16T10:09:39;8.32;;;3.75;;
41514;SDS011;27247;48.020;16.720;2023-07-16T10:13:51;4.20;;;3.80;;
41514;SDS011;27247;48.020;16.720;2023-07-16T10:18:01;5.77;;;3.40;;
41514;SDS011;27247;48.020;16.720;2023-07-16T10:22:12;25.45;;;5.10;;
41514;SDS011;27247;48.020;16.720;2023-07-16T10:26:25;4.30;;;3.30;;
41514;SDS011;27247;48.020;16.720;2023-07-16T10:30:38;4.43;;;3.42;;
41514;SDS011;27247;48.020;16.720;2023-07-16T10:34:48;3.50;;;3.20;;
41514;SDS011;27247;48.020;16.720;2023-07-16T10:39:02;4.03;;;3.00;;
41514;SDS011;27247;48.020;16.720;2023-07-16T10:43:14;3.97;;;3.15;;
41514;SDS011;27247;48.020;16.720;2023-07-16T10:51:42;5.88;;;3.10;;
41514;SDS011;27247;48.020;16.720;2023-07-16T10:55:52;5.40;;;3.70;;
41514;SDS011;27247;48.020;16.720;2023-07-16T11:00:04;6.32;;;2.90;;
41514;SDS011;27247;48.020;16.720;2023-07-16T11:04:14;10.13;;;3.38;;
41514;SDS011;27247;48.020;16.720;2023-07-16T11:08:25;8.10;;;3.03;;
41514;SDS011;27247;48.020;16.720;2023-07-16T11:12:35;3.58;;;3.22;;
41514;SDS011;27247;48.020;16.720;2023-07-16T11:16:45;3.33;;;3.03;;
41514;SDS011;27247;48.020;16.720;2023-07-16T11:20:57;4.05;;;2.70;;
41514;SDS011;27247;48.020;16.720;2023-07-16T11:25:12;3.10;;;2.80;;
41514;SDS011;27247;48.020;16.720;2023-07-16T11:29:23;4.22;;;2.60;;
41514;SDS011;27247;48.020;16.720;2023-07-16T11:33:37;4.40;;;2.90;;
41514;SDS011;27247;48.020;16.720;2023-07-16T11:37:47;3.45;;;2.83;;
41514;SDS011;27247;48.020;16.720;2023-07-16T11:41:58;3.72;;;2.75;;
41514;SDS011;27247;48.020;16.720;2023-07-16T11:46:14;8.32;;;3.08;;
41514;SDS011;27247;48.020;16.720;2023-07-16T11:50:26;8.07;;;3.00;;
41514;SDS011;27247;48.020;16.720;2023-07-16T11:54:36;4.67;;;2.90;;
41514;SDS011;27247;48.020;16.720;2023-07-16T11:58:46;3.37;;;3.07;;
41514;SDS011;27247;48.020;16.720;2023-07-16T12:02:57;3.47;;;2.58;;
41514;SDS011;27247;48.020;16.720;2023-07-16T12:07:07;6.97;;;3.10;;
41514;SDS011;27247;48.020;16.720;2023-07-16T12:11:18;4.47;;;3.05;;
41514;SDS011;27247;48.020;16.720;2023-07-16T12:15:28;3.53;;;3.00;;
41514;SDS011;27247;48.020;16.720;2023-07-16T12:19:38;2.50;;;2.20;;
41514;SDS011;27247;48.020;16.720;2023-07-16T12:23:48;6.67;;;3.00;;
41514;SDS011;27247;48.020;16.720;2023-07-16T12:27:59;4.17;;;2.63;;
41514;SDS011;27247;48.020;16.720;2023-07-16T12:32:12;3.90;;;3.05;;
41514;SDS011;27247;48.020;16.720;2023-07-16T12:36:23;6.53;;;2.45;;
41514;SDS011;27247;48.020;16.720;2023-07-16T12:40:33;5.35;;;2.70;;
41514;SDS011;27247;48.020;16.720;2023-07-16T12:44:49;3.33;;;3.03;;
41514;SDS011;27247;48.020;16.720;2023-07-16T12:49:00;5.10;;;2.78;;
41514;SDS011;27247;48.020;16.720;2023-07-16T12:53:10;3.93;;;2.80;;
41514;SDS011;27247;48.020;16.720;2023-07-16T12:57:21;4.30;;;2.60;;
41514;SDS011;27247;48.020;16.720;2023-07-16T13:01:31;7.68;;;2.75;;
41514;SDS011;27247;48.020;16.720;2023-07-16T13:05:42;3.87;;;2.83;;
41514;SDS011;27247;48.020;16.720;2023-07-16T13:09:53;3.47;;;3.17;;
41514;SDS011;27247;48.020;16.720;2023-07-16T13:14:04;6.45;;;2.72;;
41514;SDS011;27247;48.020;16.720;2023-07-16T13:18:14;3.83;;;2.60;;
41514;SDS011;27247;48.020;16.720;2023-07-16T13:22:25;3.30;;;2.67;;
41514;SDS011;27247;48.020;16.720;2023-07-16T13:26:35;7.27;;;2.40;;
41514;SDS011;27247;48.020;16.720;2023-07-16T13:30:47;4.38;;;2.95;;
41514;SDS011;27247;48.020;16.720;2023-07-16T13:34:57;2.65;;;2.45;;
41514;SDS011;27247;48.020;16.720;2023-07-16T13:39:08;2.95;;;2.70;;
41514;SDS011;27247;48.020;16.720;2023-07-16T13:43:19;2.40;;;2.20;;
41514;SDS011;27247;48.020;16.720;2023-07-16T13:47:30;5.05;;;2.25;;
41514;SDS011;27247;48.020;16.720;2023-07-16T13:51:40;4.05;;;2.80;;
41514;SDS011;27247;48.020;16.720;2023-07-16T13:55:51;4.18;;;2.25;;
41514;SDS011;27247;48.020;16.720;2023-07-16T14:00:03;3.88;;;2.17;;
41514;SDS011;27247;48.020;16.720;2023-07-16T14:04:14;3.42;;;2.33;;
41514;SDS011;27247;48.020;16.720;2023-07-16T14:08:25;3.53;;;2.30;;
41514;SDS011;27247;48.020;16.720;2023-07-16T14:12:38;3.15;;;2.25;;
41514;SDS011;27247;48.020;16.720;2023-07-16T14:16:48;4.25;;;1.80;;
41514;SDS011;27247;48.020;16.720;2023-07-16T14:20:59;3.65;;;2.50;;
41514;SDS011;27247;48.020;16.720;2023-07-16T14:25:12;2.97;;;2.40;;
41514;SDS011;27247;48.020;16.720;2023-07-16T14:29:23;6.43;;;2.50;;
41514;SDS011;27247;48.020;16.720;2023-07-16T14:33:33;2.20;;;2.10;;
41514;SDS011;27247;48.020;16.720;2023-07-16T14:37:44;4.53;;;2.00;;
41514;SDS011;27247;48.020;16.720;2023-07-16T14:41:55;2.53;;;2.20;;
41514;SDS011;27247;48.020;16.720;2023-07-16T14:46:05;5.80;;;2.40;;
41514;SDS011;27247;48.020;16.720;2023-07-16T14:50:16;2.28;;;2.08;;
41514;SDS011;27247;48.020;16.720;2023-07-16T14:54:27;21.05;;;14.43;;
41514;SDS011;27247;48.020;16.720;2023-07-16T14:58:37;12.93;;;11.60;;
41514;SDS011;27247;48.020;16.720;2023-07-16T15:02:48;18.90;;;16.50;;
41514;SDS011;27247;48.020;16.720;2023-07-16T15:06:58;21.10;;;16.40;;
41514;SDS011;27247;48.020;16.720;2023-07-16T15:11:09;5.40;;;4.90;;
41514;SDS011;27247;48.020;16.720;2023-07-16T15:15:20;4.13;;;2.92;;
41514;SDS011;27247;48.020;16.720;2023-07-16T15:19:32;3.25;;;2.50;;
41514;SDS011;27247;48.020;16.720;2023-07-16T15:23:44;4.00;;;3.60;;
41514;SDS011;27247;48.020;16.720;2023-07-16T15:27:55;3.45;;;2.97;;
41514;SDS011;27247;48.020;16.720;2023-07-16T15:32:06;4.85;;;2.97;;
41514;SDS011;27247;48.020;16.720;2023-07-16T15:36:17;3.95;;;2.38;;
41514;SDS011;27247;48.020;16.720;2023-07-16T15:40:27;3.03;;;2.50;;
41514;SDS011;27247;48.020;16.720;2023-07-16T15:44:42;2.75;;;2.13;;
41514;SDS011;27247;48.020;16.720;2023-07-16T15:48:52;2.42;;;2.22;;
41514;SDS011;27247;48.020;16.720;2023-07-16T15:53:03;2.92;;;2.63;;
41514;SDS011;27247;48.020;16.720;2023-07-16T15:57:14;2.17;;;1.98;;
41514;SDS011;27247;48.020;16.720;2023-07-16T16:01:25;2.35;;;2.15;;
41514;SDS011;27247;48.020;16.720;2023-07-16T16:05:37;3.13;;;2.20;;
41514;SDS011;27247;48.020;16.720;2023-07-16T16:09:47;4.90;;;2.53;;
41514;SDS011;27247;48.020;16.720;2023-07-16T16:13:58;3.78;;;2.30;;
41514;SDS011;27247;48.020;16.720;2023-07-16T16:18:09;2.40;;;2.10;;
41514;SDS011;27247;48.020;16.720;2023-07-16T16:22:21;2.95;;;2.30;;
41514;SDS011;27247;48.020;16.720;2023-07-16T16:26:31;2.70;;;2.50;;
41514;SDS011;27247;48.020;16.720;2023-07-16T16:30:42;4.97;;;2.70;;
41514;SDS011;27247;48.020;16.720;2023-07-16T16:34:53;3.88;;;2.10;;
41514;SDS011;27247;48.020;16.720;2023-07-16T16:39:03;3.15;;;2.50;;
41514;SDS011;27247;48.020;16.720;2023-07-16T16:43:14;2.47;;;2.28;;
41514;SDS011;27247;48.020;16.720;2023-07-16T16:47:25;2.45;;;2.22;;
41514;SDS011;27247;48.020;16.720;2023-07-16T16:51:35;3.67;;;2.72;;
41514;SDS011;27247;48.020;16.720;2023-07-16T16:55:46;2.42;;;2.10;;
41514;SDS011;27247;48.020;16.720;2023-07-16T16:59:57;2.40;;;2.20;;
41514;SDS011;27247;48.020;16.720;2023-07-16T17:04:08;2.10;;;2.00;;
41514;SDS011;27247;48.020;16.720;2023-07-16T17:08:19;4.20;;;2.53;;
41514;SDS011;27247;48.020;16.720;2023-07-16T17:12:30;2.92;;;2.58;;
41514;SDS011;27247;48.020;16.720;2023-07-16T17:16:41;4.28;;;2.33;;
41514;SDS011;27247;48.020;16.720;2023-07-16T17:20:51;3.50;;;2.25;;
41514;SDS011;27247;48.020;16.720;2023-07-16T17:25:04;2.83;;;2.38;;
41514;SDS011;27247;48.020;16.720;2023-07-16T17:29:17;3.25;;;2.20;;
41514;SDS011;27247;48.020;16.720;2023-07-16T17:33:29;4.03;;;2.40;;
41514;SDS011;27247;48.020;16.720;2023-07-16T17:37:40;4.10;;;2.60;;
41514;SDS011;27247;48.020;16.720;2023-07-16T17:41:50;2.42;;;2.22;;
41514;SDS011;27247;48.020;16.720;2023-07-16T17:46:00;2.77;;;2.37;;
41514;SDS011;27247;48.020;16.720;2023-07-16T17:50:11;4.47;;;2.80;;
41514;SDS011;27247;48.020;16.720;2023-07-16T17:54:22;7.88;;;2.85;;
41514;SDS011;27247;48.020;16.720;2023-07-16T17:58:33;5.00;;;2.60;;
41514;SDS011;27247;48.020;16.720;2023-07-16T18:02:44;4.28;;;2.60;;
41514;SDS011;27247;48.020;16.720;2023-07-16T18:06:55;2.53;;;2.30;;
41514;SDS011;27247;48.020;16.720;2023-07-16T18:11:05;9.93;;;2.83;;
41514;SDS011;27247;48.020;16.720;2023-07-16T18:15:16;4.30;;;3.03;;
41514;SDS011;27247;48.020;16.720;2023-07-16T18:19:26;5.00;;;2.78;;
41514;SDS011;27247;48.020;16.720;2023-07-16T18:23:38;3.55;;;2.83;;
41514;SDS011;27247;48.020;16.720;2023-07-16T18:27:48;3.17;;;2.55;;
41514;SDS011;27247;48.020;16.720;2023-07-16T18:31:59;3.17;;;2.73;;
41514;SDS011;27247;48.020;16.720;2023-07-16T18:36:10;2.83;;;2.58;;
41514;SDS011;27247;48.020;16.720;2023-07-16T18:40:21;8.43;;;2.55;;
41514;SDS011;27247;48.020;16.720;2023-07-16T18:44:31;2.78;;;2.55;;
41514;SDS011;27247;48.020;16.720;2023-07-16T18:48:42;3.17;;;2.88;;
41514;SDS011;27247;48.020;16.720;2023-07-16T18:52:53;2.70;;;2.50;;
41514;SDS011;27247;48.020;16.720;2023-07-16T18:57:08;5.22;;;2.70;;
41514;SDS011;27247;48.020;16.720;2023-07-16T19:01:18;3.30;;;2.63;;
41514;SDS011;27247;48.020;16.720;2023-07-16T19:05:29;3.65;;;2.63;;
41514;SDS011;27247;48.020;16.720;2023-07-16T19:09:40;6.65;;;3.17;;
41514;SDS011;27247;48.020;16.720;2023-07-16T19:13:50;10.88;;;3.85;;
41514;SDS011;27247;48.020;16.720;2023-07-16T19:18:01;8.82;;;4.50;;
41514;SDS011;27247;48.020;16.720;2023-07-16T19:22:12;10.40;;;4.35;;
41514;SDS011;27247;48.020;16.720;2023-07-16T19:26:22;11.18;;;4.30;;
41514;SDS011;27247;48.020;16.720;2023-07-16T19:30:33;8.23;;;4.90;;
41514;SDS011;27247;48.020;16.720;2023-07-16T19:34:44;10.20;;;3.65;;
41514;SDS011;27247;48.020;16.720;2023-07-16T19:38:57;6.88;;;3.28;;
41514;SDS011;27247;48.020;16.720;2023-07-16T19:43:08;4.93;;;3.20;;
41514;SDS011;27247;48.020;16.720;2023-07-16T19:47:18;3.50;;;3.20;;
41514;SDS011;27247;48.020;16.720;2023-07-16T19:51:30;3.90;;;3.30;;
41514;SDS011;27247;48.020;16.720;2023-07-16T19:55:40;9.68;;;3.22;;
41514;SDS011;27247;48.020;16.720;2023-07-16T19:59:51;6.57;;;2.80;;
41514;SDS011;27247;48.020;16.720;2023-07-16T20:04:02;3.38;;;2.97;;
41514;SDS011;27247;48.020;16.720;2023-07-16T20:08:13;3.85;;;3.42;;
41514;SDS011;27247;48.020;16.720;2023-07-16T20:12:25;7.25;;;3.47;;
41514;SDS011;27247;48.020;16.720;2023-07-16T20:16:36;6.35;;;3.10;;
41514;SDS011;27247;48.020;16.720;2023-07-16T20:20:49;6.55;;;3.00;;
41514;SDS011;27247;48.020;16.720;2023-07-16T20:25:00;4.38;;;3.28;;
41514;SDS011;27247;48.020;16.720;2023-07-16T20:29:10;19.35;;;4.32;;
41514;SDS011;27247;48.020;16.720;2023-07-16T20:33:21;7.22;;;4.05;;
41514;SDS011;27247;48.020;16.720;2023-07-16T20:37:32;7.85;;;4.00;;
41514;SDS011;27247;48.020;16.720;2023-07-16T20:41:43;8.52;;;3.95;;
41514;SDS011;27247;48.020;16.720;2023-07-16T20:45:54;11.00;;;3.80;;
41514;SDS011;27247;48.020;16.720;2023-07-16T20:50:05;5.38;;;3.42;;
41514;SDS011;27247;48.020;16.720;2023-07-16T20:54:15;5.97;;;3.65;;
41514;SDS011;27247;48.020;16.720;2023-07-16T20:58:26;3.60;;;3.15;;
41514;SDS011;27247;48.020;16.720;2023-07-16T21:02:36;8.85;;;3.63;;
41514;SDS011;27247;48.020;16.720;2023-07-16T21:06:47;4.30;;;3.43;;
41514;SDS011;27247;48.020;16.720;2023-07-16T21:10:57;6.03;;;3.60;;
41514;SDS011;27247;48.020;16.720;2023-07-16T21:15:11;5.80;;;3.80;;
41514;SDS011;27247;48.020;16.720;2023-07-16T21:19:22;8.27;;;3.50;;
41514;SDS011;27247;48.020;16.720;2023-07-16T21:23:32;5.93;;;3.70;;
41514;SDS011;27247;48.020;16.720;2023-07-16T21:31:58;5.97;;;3.67;;
41514;SDS011;27247;48.020;16.720;2023-07-16T21:36:08;9.93;;;4.17;;
41514;SDS011;27247;48.020;16.720;2023-07-16T21:40:19;11.48;;;3.72;;
41514;SDS011;27247;48.020;16.720;2023-07-16T21:44:30;5.47;;;3.40;;
41514;SDS011;27247;48.020;16.720;2023-07-16T21:48:40;7.03;;;3.40;;
41514;SDS011;27247;48.020;16.720;2023-07-16T21:52:51;6.37;;;3.33;;
41514;SDS011;27247;48.020;16.720;2023-07-16T21:57:01;3.57;;;3.27;;
41514;SDS011;27247;48.020;16.720;2023-07-16T22:01:13;6.47;;;3.67;;
41514;SDS011;27247;48.020;16.720;2023-07-16T22:05:24;4.43;;;3.63;;
41514;SDS011;27247;48.020;16.720;2023-07-16T22:09:34;7.82;;;4.07;;
41514;SDS011;27247;48.020;16.720;2023-07-16T22:13:44;4.00;;;3.57;;
41514;SDS011;27247;48.020;16.720;2023-07-16T22:17:58;5.50;;;3.75;;
41514;SDS011;27247;48.020;16.720;2023-07-16T22:22:09;6.60;;;4.03;;
41514;SDS011;27247;48.020;16.720;2023-07-16T22:26:19;13.30;;;4.00;;
41514;SDS011;27247;48.020;16.720;2023-07-16T22:30:29;5.18;;;3.70;;
41514;SDS011;27247;48.020;16.720;2023-07-16T22:34:40;5.63;;;3.50;;
41514;SDS011;27247;48.020;16.720;2023-07-16T22:38:51;4.78;;;4.07;;
41514;SDS011;27247;48.020;16.720;2023-07-16T22:43:01;7.97;;;3.50;;
41514;SDS011;27247;48.020;16.720;2023-07-16T22:47:12;4.82;;;3.50;;
41514;SDS011;27247;48.020;16.720;2023-07-16T22:51:22;6.37;;;3.30;;
41514;SDS011;27247;48.020;16.720;2023-07-16T22:55:33;4.93;;;3.83;;
41514;SDS011;27247;48.020;16.720;2023-07-16T22:59:43;4.77;;;3.33;;
41514;SDS011;27247;48.020;16.720;2023-07-16T23:03:53;4.43;;;3.83;;
41514;SDS011;27247;48.020;16.720;2023-07-16T23:08:04;7.13;;;4.10;;
41514;SDS011;27247;48.020;16.720;2023-07-16T23:12:14;9.07;;;4.00;;
41514;SDS011;27247;48.020;16.720;2023-07-16T23:16:24;5.80;;;4.17;;
41514;SDS011;27247;48.020;16.720;2023-07-16T23:20:35;7.03;;;3.60;;
41514;SDS011;27247;48.020;16.720;2023-07-16T23:24:45;4.20;;;3.80;;
41514;SDS011;27247;48.020;16.720;2023-07-16T23:28:55;9.63;;;3.95;;
41514;SDS011;27247;48.020;16.720;2023-07-16T23:33:06;11.37;;;4.20;;
41514;SDS011;27247;48.020;16.720;2023-07-16T23:37:16;6.30;;;3.97;;
41514;SDS011;27247;48.020;16.720;2023-07-16T23:41:26;4.38;;;3.90;;
41514;SDS011;27247;48.020;16.720;2023-07-16T23:45:37;6.43;;;4.37;;
41514;SDS011;27247;48.020;16.720;2023-07-16T23:49:47;7.27;;;4.43;;
41514;SDS011;27247;48.020;16.720;2023-07-16T23:53:57;8.23;;;4.37;;
41514;SDS011;27247;48.020;16.720;2023-07-16T23:58:08;4.83;;;4.03;;
